Time;durP1;ratioP1;P1;durP2;ratioP2;P2;SDS_P1;SDS_P2;PMS_P1;PMS_P2;Temp;Humidity;BMP_temperature;BMP_pressure;BME280_temperature;BME280_humidity;BME280_pressure;Samples;Min_cycle;Max_cycle;Signal;HPM_P1;HPM_P2
2022/04/12 00:00:17;;;;;;;5.07;2.50;;;;;;;7.84;57.14;95295.78;6128562;23;20163;-83
2022/04/12 00:02:43;;;;;;;3.10;2.13;;;;;;;7.80;56.90;95294.44;6152516;23;20151;-84
2022/04/12 00:05:11;;;;;;;3.50;2.40;;;;;;;7.80;57.01;95289.28;6154922;23;20225;-84
2022/04/12 00:07:37;;;;;;;5.53;2.47;;;;;;;7.85;56.88;95292.25;6130265;23;20207;-82
2022/04/12 00:10:03;;;;;;;4.57;2.27;;;;;;;7.84;56.70;95291.44;6154510;23;20156;-82
2022/04/12 00:12:28;;;;;;;4.97;2.37;;;;;;;7.88;56.75;95294.56;6155124;23;20186;-82
2022/04/12 00:14:53;;;;;;;3.53;2.20;;;;;;;7.92;56.63;95296.72;6131443;23;20171;-83
2022/04/12 00:20:03;;;;;;;3.77;2.40;;;;;;;7.91;56.58;95296.88;6135111;23;20167;-81
2022/04/12 00:22:28;;;;;;;2.67;2.27;;;;;;;7.95;56.37;95295.63;6129705;23;20159;-81
2022/04/12 00:24:54;;;;;;;2.40;2.17;;;;;;;7.84;57.18;95286.25;6129761;23;20310;-83
2022/04/12 00:27:22;;;;;;;2.20;2.00;;;;;;;7.86;56.93;95284.38;6129297;23;20301;-81
2022/04/12 00:29:48;;;;;;;3.93;2.43;;;;;;;7.85;57.01;95287.06;6129081;23;20210;-81
2022/04/12 00:32:13;;;;;;;3.60;2.13;;;;;;;7.89;56.89;95284.09;6128243;23;20148;-82
2022/04/12 00:34:38;;;;;;;3.23;2.60;;;;;;;7.84;56.86;95286.25;6128497;23;20159;-82
2022/04/12 00:37:04;;;;;;;3.07;2.43;;;;;;;7.95;56.72;95286.13;6128184;23;20171;-83
2022/04/12 00:39:30;;;;;;;2.57;2.07;;;;;;;7.92;56.93;95286.38;6129276;23;20159;-81
2022/04/12 00:41:57;;;;;;;2.67;1.90;;;;;;;7.98;56.33;95290.22;6129146;23;20159;-82
2022/04/12 00:44:22;;;;;;;2.77;2.00;;;;;;;8.02;55.92;95283.78;6129853;23;20189;-82
2022/04/12 00:46:47;;;;;;;3.20;2.50;;;;;;;8.04;55.47;95287.06;6129341;23;20180;-82
2022/04/12 00:49:13;;;;;;;3.43;2.20;;;;;;;8.06;55.67;95281.75;6129122;23;20163;-83
2022/04/12 00:51:38;;;;;;;2.67;1.90;;;;;;;8.14;54.58;95282.69;6128189;23;20177;-83
2022/04/12 00:54:05;;;;;;;3.43;2.50;;;;;;;8.15;54.90;95289.50;6129115;23;20540;-82
2022/04/12 00:56:31;;;;;;;3.80;2.50;;;;;;;8.16;54.30;95278.19;6129703;23;20193;-83
2022/04/12 00:58:56;;;;;;;2.70;1.90;;;;;;;8.20;53.74;95268.38;6129054;23;20246;-82
2022/04/12 01:01:21;;;;;;;2.50;1.97;;;;;;;8.30;53.34;95273.53;6128694;23;20167;-82
2022/04/12 01:03:47;;;;;;;2.93;2.10;;;;;;;8.30;53.08;95265.75;6129418;23;20167;-82
2022/04/12 01:06:13;;;;;;;2.50;2.10;;;;;;;8.41;52.67;95260.47;6129592;23;20178;-80
2022/04/12 01:08:38;;;;;;;2.87;2.07;;;;;;;8.39;52.59;95268.38;6129518;23;20242;-81
2022/04/12 01:11:07;;;;;;;3.00;2.07;;;;;;;8.34;53.06;95269.72;6129862;23;20536;-81
2022/04/12 01:13:33;;;;;;;3.50;2.00;;;;;;;8.31;53.26;95267.41;6130022;23;20166;-80
2022/04/12 01:15:58;;;;;;;2.77;1.90;;;;;;;8.21;53.89;95273.41;6104796;23;20159;-82
2022/04/12 01:18:23;;;;;;;3.07;2.07;;;;;;;8.21;53.72;95267.41;6129240;23;20182;-83
2022/04/12 01:20:49;;;;;;;4.10;2.60;;;;;;;8.25;53.14;95271.38;6129060;23;20163;-82
2022/04/12 01:23:22;;;;;;;5.13;2.13;;;;;;;8.21;53.78;95262.25;6128183;23;20170;-81
2022/04/12 01:25:47;;;;;;;2.93;2.23;;;;;;;8.19;53.82;95259.81;6128985;23;20155;-84
2022/04/12 01:28:13;;;;;;;4.10;2.30;;;;;;;8.13;53.67;95254.41;6128454;23;20198;-81
2022/04/12 01:30:38;;;;;;;2.60;2.10;;;;;;;8.09;53.72;95259.00;6129038;23;20190;-81
2022/04/12 01:33:04;;;;;;;3.40;2.23;;;;;;;8.06;53.89;95259.31;6128304;23;20165;-82
2022/04/12 01:35:30;;;;;;;3.90;2.03;;;;;;;8.03;54.11;95267.31;6128841;23;20166;-82
2022/04/12 01:37:55;;;;;;;3.53;2.10;;;;;;;8.04;54.32;95268.13;6127836;23;20221;-82
2022/04/12 01:40:21;;;;;;;2.53;2.03;;;;;;;7.96;54.39;95266.25;6128979;23;20159;-82
2022/04/12 01:42:47;;;;;;;5.27;2.20;;;;;;;7.95;54.53;95268.03;6128640;23;20155;-81
2022/04/12 01:45:12;;;;;;;4.53;1.97;;;;;;;7.91;54.65;95258.91;6154494;23;20163;-82
2022/04/12 01:47:37;;;;;;;5.03;2.00;;;;;;;7.89;54.85;95258.22;6129449;23;20179;-83
2022/04/12 01:50:04;;;;;;;2.87;2.00;;;;;;;7.82;55.24;95261.50;6129926;23;20159;-81
2022/04/12 01:52:29;;;;;;;3.13;2.17;;;;;;;7.85;55.01;95253.47;6128798;23;20158;-83
2022/04/12 01:54:55;;;;;;;2.63;2.27;;;;;;;7.75;55.62;95255.25;6129406;23;20276;-83
2022/04/12 01:57:20;;;;;;;4.33;2.10;;;;;;;7.69;55.59;95253.22;6129424;23;20175;-82
2022/04/12 01:59:45;;;;;;;3.53;1.97;;;;;;;7.64;55.67;95248.47;6129684;23;20147;-81
2022/04/12 02:02:10;;;;;;;4.90;2.03;;;;;;;7.62;55.52;95248.59;6129192;23;20163;-84
2022/04/12 02:04:36;;;;;;;3.53;1.93;;;;;;;7.56;55.63;95238.78;6129196;23;20613;-83
2022/04/12 02:07:01;;;;;;;4.90;1.90;;;;;;;7.58;55.76;95239.47;6129459;23;20498;-82
2022/04/12 02:09:26;;;;;;;2.20;1.90;;;;;;;7.53;56.10;95241.66;6129144;23;20159;-84
2022/04/12 02:11:55;;;;;;;3.27;2.00;;;;;;;7.47;56.30;95241.38;6128608;23;20509;-83
2022/04/12 02:14:21;;;;;;;3.83;2.53;;;;;;;7.50;55.95;95247.09;6129899;23;20628;-83
2022/04/12 02:16:46;;;;;;;3.00;2.23;;;;;;;7.49;55.54;95250.63;6129399;23;20179;-83
2022/04/12 02:19:11;;;;;;;3.23;2.00;;;;;;;7.50;55.82;95243.69;6153788;23;20182;-81
2022/04/12 02:21:37;;;;;;;3.23;2.23;;;;;;;7.56;55.59;95245.75;6128716;23;20238;-81
2022/04/12 02:24:02;;;;;;;2.37;2.03;;;;;;;7.63;54.79;95242.47;6129352;23;20163;-81
2022/04/12 02:26:28;;;;;;;2.80;2.20;;;;;;;7.55;55.42;95247.50;6153770;23;20557;-81
2022/04/12 02:28:53;;;;;;;3.00;1.87;;;;;;;7.64;55.09;95249.28;6129025;23;20171;-82
2022/04/12 02:31:18;;;;;;;3.90;2.17;;;;;;;7.63;55.38;95237.31;6152643;23;20252;-83
2022/04/12 02:33:43;;;;;;;2.13;1.93;;;;;;;7.58;55.37;95236.88;6128530;23;20159;-82
2022/04/12 02:36:09;;;;;;;1.70;1.53;;;;;;;7.48;55.25;95236.06;6127717;23;20161;-83
2022/04/12 02:38:34;;;;;;;2.53;1.87;;;;;;;7.48;55.14;95232.69;6129013;23;20156;-81
2022/04/12 02:40:59;;;;;;;2.00;1.60;;;;;;;7.48;55.27;95227.50;6155244;23;20158;-83
2022/04/12 02:43:25;;;;;;;2.83;2.13;;;;;;;7.48;55.39;95228.31;6128471;23;20472;-81
2022/04/12 02:45:50;;;;;;;2.53;2.20;;;;;;;7.45;55.85;95235.56;6128924;23;20163;-82
2022/04/12 02:48:16;;;;;;;2.03;1.83;;;;;;;7.40;55.92;95228.19;6128809;23;20655;-82
2022/04/12 02:50:41;;;;;;;4.53;2.10;;;;;;;7.45;55.72;95231.19;6128931;23;20497;-84
2022/04/12 02:53:06;;;;;;;2.10;1.90;;;;;;;7.49;55.71;95218.81;6128404;23;20159;-81
2022/04/12 02:55:32;;;;;;;5.60;1.97;;;;;;;7.61;55.38;95223.72;6128707;23;20517;-84
2022/04/12 02:57:57;;;;;;;3.17;1.90;;;;;;;7.61;55.26;95221.13;6150278;23;20180;-81
2022/04/12 03:00:22;;;;;;;2.63;1.87;;;;;;;7.49;55.86;95211.88;6157002;23;20155;-80
2022/04/12 03:02:48;;;;;;;2.40;2.20;;;;;;;7.56;55.31;95210.38;6155267;23;20203;-81
2022/04/12 03:05:13;;;;;;;3.13;1.80;;;;;;;7.59;55.54;95214.44;6156268;23;20156;-80
2022/04/12 03:07:38;;;;;;;2.90;1.97;;;;;;;7.63;55.62;95218.41;6147553;23;20262;-81
2022/04/12 03:10:04;;;;;;;2.77;2.13;;;;;;;7.55;55.68;95219.09;6130705;23;20162;-81
2022/04/12 03:12:29;;;;;;;3.67;2.30;;;;;;;7.52;55.42;95214.19;6131183;23;20159;-83
2022/04/12 03:14:54;;;;;;;3.60;2.30;;;;;;;7.58;55.42;95211.03;6131546;23;20234;-81
2022/04/12 03:17:20;;;;;;;3.00;2.10;;;;;;;7.52;55.73;95218.56;6130514;23;20177;-83
2022/04/12 03:19:46;;;;;;;3.37;2.13;;;;;;;7.54;55.82;95217.44;6130265;23;20159;-82
2022/04/12 03:22:11;;;;;;;2.97;1.97;;;;;;;7.51;55.99;95212.56;6130406;23;20236;-82
2022/04/12 03:24:36;;;;;;;2.20;1.60;;;;;;;7.55;56.04;95210.53;6129408;23;20171;-81
2022/04/12 03:27:02;;;;;;;2.60;1.90;;;;;;;7.49;56.33;95216.22;6130526;23;20186;-82
2022/04/12 03:29:27;;;;;;;2.30;1.97;;;;;;;7.49;55.74;95211.88;6129661;23;20209;-82
2022/04/12 03:31:53;;;;;;;5.53;2.37;;;;;;;7.48;56.08;95218.00;6128855;23;20537;-82
2022/04/12 03:34:19;;;;;;;4.63;2.00;;;;;;;7.48;56.15;95212.81;6104813;23;20154;-83
2022/04/12 03:36:44;;;;;;;3.20;1.90;;;;;;;7.52;55.63;95216.78;6127871;23;20179;-83
2022/04/12 03:39:16;;;;;;;2.53;1.90;;;;;;;7.63;54.91;95219.22;6129418;23;20165;-83
2022/04/12 03:41:41;;;;;;;3.63;2.40;;;;;;;7.59;55.63;95220.44;6131109;23;20171;-83
2022/04/12 03:44:07;;;;;;;2.50;2.30;;;;;;;7.62;55.02;95221.94;6130503;23;20158;-82
2022/04/12 03:46:32;;;;;;;3.90;1.80;;;;;;;7.64;54.66;95217.44;6131379;23;20242;-83
2022/04/12 03:48:57;;;;;;;3.57;2.37;;;;;;;7.61;55.28;95218.53;6131618;23;20202;-81
2022/04/12 03:51:22;;;;;;;3.17;2.00;;;;;;;7.67;54.72;95220.56;6130803;23;20160;-83
2022/04/12 03:53:49;;;;;;;3.50;2.10;;;;;;;7.69;54.55;95227.38;6131401;23;20613;-81
2022/04/12 03:56:15;;;;;;;2.67;2.07;;;;;;;7.70;54.57;95227.25;6131049;23;20190;-81
2022/04/12 03:58:41;;;;;;;2.57;1.67;;;;;;;7.72;54.30;95221.94;6156340;23;20174;-83
2022/04/12 04:01:06;;;;;;;4.03;1.90;;;;;;;7.71;54.59;95226.28;6130791;23;20202;-81
2022/04/12 04:03:32;;;;;;;3.10;2.23;;;;;;;7.73;54.05;95220.97;6106951;23;20504;-81
2022/04/12 04:05:57;;;;;;;3.07;2.13;;;;;;;7.74;54.33;95220.00;6157759;23;20159;-82
2022/04/12 04:08:23;;;;;;;2.33;2.13;;;;;;;7.71;54.82;95217.72;6129809;23;20243;-81
2022/04/12 04:10:49;;;;;;;3.10;2.37;;;;;;;7.76;54.39;95226.66;6130644;23;20151;-80
2022/04/12 04:13:15;;;;;;;3.40;2.37;;;;;;;7.69;55.00;95223.03;6154274;23;20162;-80
2022/04/12 04:15:40;;;;;;;3.63;1.87;;;;;;;7.65;55.18;95224.25;6130331;23;20163;-81
2022/04/12 04:18:07;;;;;;;5.00;2.70;;;;;;;7.71;55.46;95218.53;6130637;23;20236;-82
2022/04/12 04:20:32;;;;;;;4.07;2.17;;;;;;;7.70;55.58;95205.75;6130464;23;20519;-81
2022/04/12 04:22:58;;;;;;;3.83;2.43;;;;;;;7.72;55.65;95203.84;6130289;23;20167;-82
2022/04/12 04:25:23;;;;;;;2.43;2.10;;;;;;;7.71;55.62;95217.72;6131159;23;20174;-81
2022/04/12 04:27:49;;;;;;;2.43;2.07;;;;;;;7.59;56.02;95214.44;6156639;23;20575;-82
2022/04/12 04:30:15;;;;;;;3.00;2.37;;;;;;;7.55;56.43;95215.69;6130838;23;20155;-81
2022/04/12 04:32:42;;;;;;;3.80;2.53;;;;;;;7.50;56.72;95213.50;6154981;23;20178;-81
2022/04/12 04:35:08;;;;;;;2.53;2.10;;;;;;;7.51;56.64;95210.00;6130626;23;20178;-83
2022/04/12 04:37:47;;;;;;;2.73;2.27;;;;;;;7.46;56.45;95214.75;6155171;23;20210;-82
2022/04/12 04:40:20;;;;;;;2.40;2.07;;;;;;;7.47;56.55;95208.63;6130689;23;20155;-82
2022/04/12 04:42:46;;;;;;;4.70;2.43;;;;;;;7.49;56.53;95214.47;6129152;23;20164;-82
2022/04/12 04:45:13;;;;;;;3.00;1.87;;;;;;;7.48;56.17;95217.19;6104662;23;20293;-82
2022/04/12 04:47:55;;;;;;;3.07;2.03;;;;;;;7.59;56.13;95219.63;6105751;23;20186;-83
2022/04/12 04:50:22;;;;;;;2.53;2.33;;;;;;;7.67;55.61;95219.75;6155084;23;20155;-81
2022/04/12 04:52:47;;;;;;;2.90;2.03;;;;;;;7.59;55.77;95220.44;6154794;23;20159;-83
2022/04/12 04:55:13;;;;;;;2.70;2.27;;;;;;;7.62;55.70;95219.34;6155288;23;20485;-81
2022/04/12 04:57:39;;;;;;;3.10;2.20;;;;;;;7.62;55.65;95216.78;6105455;23;20258;-83
2022/04/12 05:00:06;;;;;;;2.13;1.87;;;;;;;7.61;55.57;95213.38;6129768;23;20163;-82
2022/04/12 05:02:32;;;;;;;2.40;2.13;;;;;;;7.66;55.35;95220.69;6129156;23;20160;-83
2022/04/12 05:04:57;;;;;;;3.30;2.00;;;;;;;7.75;54.85;95221.66;6130627;23;20164;-82
2022/04/12 05:07:26;;;;;;;3.40;2.20;;;;;;;7.83;54.42;95220.00;6152086;23;20211;-84
2022/04/12 05:09:52;;;;;;;2.90;2.00;;;;;;;8.03;53.64;95214.78;6117142;23;20280;-83
2022/04/12 05:12:17;;;;;;;2.97;2.50;;;;;;;8.04;53.87;95213.81;6110032;23;20160;-82
2022/04/12 05:14:43;;;;;;;3.60;2.83;;;;;;;8.10;52.83;95224.44;6134343;23;20163;-83
2022/04/12 05:17:08;;;;;;;2.73;2.10;;;;;;;8.24;52.69;95218.81;6130165;23;20176;-85
2022/04/12 05:19:33;;;;;;;3.20;2.00;;;;;;;8.33;52.98;95217.16;6129054;23;20163;-84
2022/04/12 05:21:58;;;;;;;2.83;2.07;;;;;;;8.40;52.37;95217.44;6128719;23;20164;-86
2022/04/12 05:24:47;;;;;;;3.47;1.90;;;;;;;8.49;52.27;95225.16;6128747;23;20552;-87
2022/04/12 05:29:47;;;;;;;5.37;1.73;;;;;;;8.69;51.56;95231.06;6182535;23;20183;-80
2022/04/12 05:32:13;;;;;;;3.07;1.70;;;;;;;8.75;50.89;95225.31;6156114;23;20158;-82
2022/04/12 05:34:39;;;;;;;2.27;1.80;;;;;;;8.97;50.95;95218.09;6158470;23;20155;-82
2022/04/12 05:37:05;;;;;;;2.70;1.90;;;;;;;9.07;50.37;95221.44;6152466;23;20183;-80
2022/04/12 05:39:31;;;;;;;2.30;1.83;;;;;;;9.21;50.05;95225.31;6127820;23;20562;-81
2022/04/12 05:42:00;;;;;;;3.40;1.70;;;;;;;9.34;50.10;95228.34;6123690;23;20501;-81
2022/04/12 05:44:28;;;;;;;5.60;2.20;;;;;;;9.43;49.60;95227.47;6151107;23;20492;-81
2022/04/12 05:46:54;;;;;;;2.20;1.50;;;;;;;9.51;49.19;95232.72;6129358;23;20626;-83
2022/04/12 05:49:19;;;;;;;2.57;1.63;;;;;;;9.67;48.95;95233.84;6130015;23;20151;-82
2022/04/12 05:51:45;;;;;;;1.83;1.50;;;;;;;9.82;49.01;95234.94;6128135;23;20155;-79
2022/04/12 05:54:10;;;;;;;2.53;1.83;;;;;;;9.94;48.77;95239.72;6128571;23;20151;-81
2022/04/12 05:56:35;;;;;;;2.30;1.60;;;;;;;10.04;47.80;95239.63;6128484;23;20648;-81
2022/04/12 05:59:00;;;;;;;3.30;1.80;;;;;;;10.18;47.28;95231.28;6128567;23;20352;-81
2022/04/12 06:01:26;;;;;;;1.93;1.47;;;;;;;10.35;47.58;95234.84;6127940;23;20163;-82
2022/04/12 06:03:51;;;;;;;3.20;1.80;;;;;;;10.47;47.60;95236.19;6128801;23;20671;-82
2022/04/12 06:06:16;;;;;;;3.60;2.40;;;;;;;10.59;47.50;95233.31;6123766;23;20186;-81
2022/04/12 06:08:42;;;;;;;2.10;1.83;;;;;;;10.58;47.48;95235.09;6149755;23;20139;-81
2022/04/12 06:11:07;;;;;;;3.27;1.70;;;;;;;10.59;47.35;95231.53;6124594;23;20530;-79
2022/04/12 06:13:32;;;;;;;3.97;1.97;;;;;;;10.57;47.15;95235.25;6126600;23;20160;-82
2022/04/12 06:15:58;;;;;;;1.87;1.77;;;;;;;10.67;46.71;95235.97;6127326;23;20151;-82
2022/04/12 06:18:23;;;;;;;3.67;1.80;;;;;;;10.69;46.34;95234.00;6127850;23;20181;-82
2022/04/12 06:20:48;;;;;;;2.43;1.63;;;;;;;10.79;45.87;95232.13;6127496;23;20202;-82
2022/04/12 06:23:14;;;;;;;1.90;1.40;;;;;;;10.77;45.87;95234.03;6127152;23;20494;-82
2022/04/12 06:25:39;;;;;;;2.00;1.77;;;;;;;10.89;44.91;95240.59;6152071;23;20159;-81
2022/04/12 06:28:07;;;;;;;1.63;1.53;;;;;;;11.09;44.93;95243.75;6127243;23;20195;-80
2022/04/12 06:30:32;;;;;;;2.40;1.83;;;;;;;11.03;44.61;95242.59;6127616;23;20254;-83
2022/04/12 06:32:58;;;;;;;2.77;1.70;;;;;;;11.16;44.18;95243.94;6126753;23;20187;-83
2022/04/12 06:35:23;;;;;;;3.80;1.57;;;;;;;11.43;44.07;95248.06;6128463;23;20170;-82
2022/04/12 06:37:53;;;;;;;1.97;1.63;;;;;;;11.61;43.35;95241.75;6130688;23;20262;-82
2022/04/12 06:40:19;;;;;;;5.63;2.07;;;;;;;11.85;43.59;95248.78;6127878;23;20217;-80
2022/04/12 06:42:45;;;;;;;2.90;1.57;;;;;;;11.90;43.26;95250.88;6151293;23;20550;-81
2022/04/12 06:45:11;;;;;;;3.17;1.80;;;;;;;11.97;43.06;95253.66;6128223;23;20175;-83
2022/04/12 06:47:37;;;;;;;2.80;1.87;;;;;;;12.24;42.57;95252.50;6151626;23;20214;-82
2022/04/12 06:50:03;;;;;;;3.90;1.80;;;;;;;12.13;42.23;95257.06;6176895;23;20523;-81
2022/04/12 06:52:28;;;;;;;3.87;1.93;;;;;;;12.22;41.95;95254.47;6151328;23;20545;-81
2022/04/12 06:54:54;;;;;;;3.60;1.90;;;;;;;12.23;41.87;95250.88;6127045;23;20160;-80
2022/04/12 06:57:19;;;;;;;2.43;2.13;;;;;;;12.43;41.18;95246.94;6128147;23;20178;-81
2022/04/12 06:59:45;;;;;;;2.47;1.77;;;;;;;12.26;40.89;95245.34;6153092;23;20656;-81
2022/04/12 07:02:10;;;;;;;2.00;1.80;;;;;;;12.32;41.23;95250.69;6133944;23;20494;-81
2022/04/12 07:04:35;;;;;;;2.70;1.87;;;;;;;12.42;41.02;95250.50;6103347;23;20257;-81
2022/04/12 07:07:06;;;;;;;2.00;1.60;;;;;;;12.73;40.62;95248.81;6161155;23;20401;-83
2022/04/12 07:09:32;;;;;;;2.27;1.50;;;;;;;12.84;39.71;95249.44;6145639;23;20194;-83
2022/04/12 07:11:58;;;;;;;2.37;1.90;;;;;;;12.74;40.01;95253.03;6159790;23;20155;-81
2022/04/12 07:14:24;;;;;;;3.10;2.07;;;;;;;12.75;39.85;95256.47;6155572;23;20151;-82
2022/04/12 07:16:50;;;;;;;2.30;1.80;;;;;;;12.70;40.12;95256.94;6128662;23;20518;-82
2022/04/12 07:19:15;;;;;;;2.60;1.60;;;;;;;12.83;40.81;95260.84;6177527;23;20151;-79
2022/04/12 07:21:41;;;;;;;2.67;1.50;;;;;;;12.89;39.92;95258.34;6155439;23;20156;-78
2022/04/12 07:24:07;;;;;;;2.13;1.80;;;;;;;12.91;40.00;95263.41;6156239;23;20151;-78
2022/04/12 07:26:33;;;;;;;2.50;2.00;;;;;;;13.04;39.61;95263.69;6154809;23;20179;-79
2022/04/12 07:28:59;;;;;;;2.00;1.80;;;;;;;13.25;39.53;95268.31;6156722;23;20182;-81
2022/04/12 07:31:25;;;;;;;2.00;1.50;;;;;;;13.33;39.23;95261.28;6127104;23;20167;-82
2022/04/12 07:33:50;;;;;;;3.13;1.80;;;;;;;13.57;39.00;95264.72;6128725;23;20443;-83
2022/04/12 07:36:15;;;;;;;4.00;1.80;;;;;;;13.59;38.07;95262.75;6128543;23;20186;-82
2022/04/12 07:38:41;;;;;;;2.63;2.00;;;;;;;13.59;38.87;95270.59;6153259;23;20163;-81
2022/04/12 07:41:07;;;;;;;4.30;1.77;;;;;;;13.81;38.45;95275.03;6128245;23;20170;-81
2022/04/12 07:43:32;;;;;;;3.17;1.53;;;;;;;13.86;38.15;95277.91;6128092;23;20155;-82
2022/04/12 07:45:57;;;;;;;3.67;1.67;;;;;;;14.06;38.48;95278.25;6127203;23;20190;-80
2022/04/12 07:48:23;;;;;;;2.40;1.50;;;;;;;14.35;38.39;95274.09;6127267;23;20677;-82
2022/04/12 07:50:48;;;;;;;2.83;1.60;;;;;;;14.45;39.12;95277.28;6129024;23;20159;-81
2022/04/12 07:53:13;;;;;;;1.77;1.57;;;;;;;14.60;39.62;95272.09;6129926;23;20156;-80
2022/04/12 07:55:38;;;;;;;2.83;1.47;;;;;;;14.87;38.80;95276.69;6127100;23;20612;-82
2022/04/12 07:58:04;;;;;;;2.33;1.93;;;;;;;15.08;39.15;95277.78;6127289;23;20167;-80
2022/04/12 08:00:29;;;;;;;2.43;2.23;;;;;;;15.23;38.64;95273.34;6127083;23;20155;-82
2022/04/12 08:02:55;;;;;;;1.93;1.60;;;;;;;15.27;38.39;95275.41;6152693;23;20460;-83
2022/04/12 08:05:20;;;;;;;1.70;1.60;;;;;;;15.37;38.19;95272.53;6154187;23;20159;-81
2022/04/12 08:07:48;;;;;;;1.67;1.57;;;;;;;15.55;39.02;95278.16;6127458;23;20191;-80
2022/04/12 08:10:15;;;;;;;1.73;1.30;;;;;;;15.59;39.58;95276.78;6128333;23;20159;-83
2022/04/12 08:12:41;;;;;;;3.80;1.23;;;;;;;15.80;38.12;95269.97;6126997;23;20166;-83
2022/04/12 08:15:07;;;;;;;4.47;1.33;;;;;;;15.85;38.90;95271.03;6128606;23;20155;-82
2022/04/12 08:17:32;;;;;;;2.13;1.40;;;;;;;15.98;37.91;95277.38;6128241;23;20206;-82
2022/04/12 08:19:57;;;;;;;1.67;1.27;;;;;;;16.07;38.55;95269.22;6127819;23;20155;-83
2022/04/12 08:22:22;;;;;;;1.40;1.27;;;;;;;16.26;37.52;95273.03;6127761;23;20159;-82
2022/04/12 08:24:48;;;;;;;1.47;1.13;;;;;;;16.23;37.03;95272.56;6153422;23;20162;-83
2022/04/12 08:27:13;;;;;;;1.60;1.37;;;;;;;15.92;35.81;95265.06;6128216;23;20190;-81
2022/04/12 08:29:38;;;;;;;3.20;1.33;;;;;;;15.86;36.62;95264.00;6127807;23;20214;-82
2022/04/12 08:32:04;;;;;;;1.23;1.00;;;;;;;15.95;36.34;95264.69;6127317;23;20159;-83
2022/04/12 08:34:29;;;;;;;2.80;1.23;;;;;;;15.82;36.54;95262.75;6129356;23;20605;-83
2022/04/12 08:36:55;;;;;;;2.70;1.43;;;;;;;15.70;37.10;95266.84;6129800;23;20254;-83
2022/04/12 08:39:20;;;;;;;2.17;1.27;;;;;;;15.45;35.94;95258.50;6153623;23;20163;-82
2022/04/12 08:41:47;;;;;;;8.63;1.40;;;;;;;15.54;37.23;95273.88;6128687;23;20183;-80
2022/04/12 08:44:17;;;;;;;1.80;1.20;;;;;;;15.69;37.18;95270.47;6128822;23;20646;-82
2022/04/12 08:46:43;;;;;;;2.17;1.30;;;;;;;15.93;36.22;95267.50;6153660;23;20198;-80
2022/04/12 08:49:08;;;;;;;1.07;0.97;;;;;;;16.05;34.51;95278.25;6129116;23;20159;-81
2022/04/12 08:51:34;;;;;;;1.33;0.97;;;;;;;16.27;34.11;95276.44;6128729;23;20195;-81
2022/04/12 08:54:00;;;;;;;3.07;1.10;;;;;;;16.18;30.98;95275.78;6153959;23;20155;-82
2022/04/12 08:56:26;;;;;;;2.17;1.10;;;;;;;16.35;32.75;95268.47;6130479;23;20281;-80
2022/04/12 08:58:52;;;;;;;1.97;1.10;;;;;;;16.58;30.96;95265.59;6131225;23;20163;-81
2022/04/12 09:01:17;;;;;;;1.47;1.03;;;;;;;16.48;31.63;95273.78;6180471;23;20473;-81
2022/04/12 09:03:45;;;;;;;1.07;0.97;;;;;;;16.73;31.62;95268.94;6157940;23;20182;-82
2022/04/12 09:06:11;;;;;;;2.17;1.10;;;;;;;16.90;31.81;95272.09;6132190;23;20183;-82
2022/04/12 09:08:36;;;;;;;2.87;1.00;;;;;;;16.67;31.68;95270.50;6132424;23;20274;-81
2022/04/12 09:11:05;;;;;;;2.53;1.20;;;;;;;16.85;31.74;95271.84;6120164;23;20159;-80
2022/04/12 09:13:31;;;;;;;2.23;1.23;;;;;;;17.23;33.11;95270.44;6156716;23;20175;-79
2022/04/12 09:15:57;;;;;;;2.13;0.90;;;;;;;17.36;31.81;95269.66;6181463;23;20160;-79
2022/04/12 09:18:37;;;;;;;2.33;1.17;;;;;;;17.23;32.99;95273.06;6157093;23;20159;-79
2022/04/12 09:21:09;;;;;;;1.57;1.07;;;;;;;17.43;32.78;95269.72;6156979;23;20139;-79
2022/04/12 09:23:35;;;;;;;3.63;0.95;;;;;;;17.40;32.00;95263.00;6182219;23;20140;-79
2022/04/12 09:26:00;;;;;;;3.85;1.10;;;;;;;17.48;31.35;95267.28;6156782;23;20142;-78
2022/04/12 09:28:25;;;;;;;2.05;1.20;;;;;;;17.42;30.46;95266.28;6156671;23;20191;-79
2022/04/12 09:30:53;;;;;;;2.35;1.30;;;;;;;17.40;30.25;95260.38;6157025;23;20158;-78
2022/04/12 09:33:36;;;;;;;3.72;1.33;;;;;;;17.55;30.18;95265.50;6156592;23;20166;-79
2022/04/12 09:36:01;;;;;;;1.63;0.98;;;;;;;17.41;29.80;95258.59;6156957;23;20150;-77
2022/04/12 09:38:31;;;;;;;1.55;1.10;;;;;;;17.58;28.93;95259.03;6206390;23;20135;-78
2022/04/12 09:41:17;;;;;;;3.08;1.10;;;;;;;17.84;28.54;95259.13;6156903;23;20163;-80
2022/04/12 09:44:07;;;;;;;2.25;1.10;;;;;;;17.85;28.50;95258.16;6181213;23;20152;-78
2022/04/12 09:46:33;;;;;;;2.72;1.20;;;;;;;17.51;28.59;95251.97;6181168;23;20171;-79
2022/04/12 09:48:59;;;;;;;2.08;1.10;;;;;;;17.78;27.71;95259.94;6157000;23;20162;-78
2022/04/12 09:51:24;;;;;;;1.27;0.82;;;;;;;17.93;27.62;95260.56;6181053;23;20160;-78
2022/04/12 09:53:50;;;;;;;4.60;1.10;;;;;;;17.75;28.28;95261.13;6181388;23;20162;-80
2022/04/12 09:56:28;;;;;;;1.13;0.80;;;;;;;17.97;28.23;95267.03;6179976;23;20171;-80
2022/04/12 09:58:56;;;;;;;1.63;0.98;;;;;;;17.87;27.16;95271.06;6157012;23;20135;-80
2022/04/12 10:01:22;;;;;;;1.80;0.98;;;;;;;17.90;27.41;95263.59;6180900;23;20151;-80
2022/04/12 10:03:50;;;;;;;2.08;1.13;;;;;;;18.10;28.02;95266.25;6181110;23;20175;-80
2022/04/12 10:06:18;;;;;;;1.75;1.02;;;;;;;18.03;28.73;95273.34;6167802;23;20171;-82
2022/04/12 10:08:43;;;;;;;1.52;0.88;;;;;;;18.19;26.94;95266.84;6131120;23;20163;-81
2022/04/12 10:11:11;;;;;;;3.10;1.15;;;;;;;18.01;28.02;95267.44;6155681;23;20533;-82
2022/04/12 10:13:37;;;;;;;2.42;0.98;;;;;;;18.01;27.94;95256.94;6130310;23;20170;-81
2022/04/12 10:16:04;;;;;;;0.90;0.90;;;;;;;18.15;28.78;95260.41;6128572;23;20167;-82
2022/04/12 10:18:31;;;;;;;1.00;0.90;;;;;;;18.05;29.96;95263.41;6154850;23;20178;-82
2022/04/12 10:20:58;;;;;;;2.35;1.00;;;;;;;18.13;29.28;95252.72;6129790;23;20156;-82
2022/04/12 10:23:25;;;;;;;2.78;1.23;;;;;;;18.18;29.31;95250.28;6128596;23;20167;-82
2022/04/12 10:25:52;;;;;;;3.78;1.67;;;;;;;18.45;30.37;95251.06;6129539;23;20151;-83
2022/04/12 10:28:17;;;;;;;1.15;0.82;;;;;;;18.61;30.44;95239.34;6153468;23;20262;-82
2022/04/12 10:30:42;;;;;;;1.63;1.20;;;;;;;18.60;29.96;95248.25;6129602;23;20298;-83
2022/04/12 10:33:16;;;;;;;2.88;1.05;;;;;;;18.55;29.94;95242.78;6128451;23;20159;-82
2022/04/12 10:35:45;;;;;;;1.92;1.23;;;;;;;18.66;29.01;95234.31;6154151;23;20166;-82
2022/04/12 10:38:18;;;;;;;3.95;1.00;;;;;;;18.71;29.95;95231.88;6156216;23;20186;-80
2022/04/12 10:40:45;;;;;;;1.20;1.10;;;;;;;18.73;30.13;95232.50;6130302;23;20151;-81
2022/04/12 10:43:11;;;;;;;1.85;1.10;;;;;;;18.79;29.89;95228.22;6153902;23;20190;-82
2022/04/12 10:45:45;;;;;;;2.63;1.10;;;;;;;18.75;30.45;95227.81;6154353;23;20163;-82
2022/04/12 10:48:18;;;;;;;3.60;1.17;;;;;;;18.77;30.18;95224.97;6128943;23;20283;-83
2022/04/12 10:50:45;;;;;;;2.95;1.30;;;;;;;18.74;30.83;95228.84;6129380;23;20211;-83
2022/04/12 10:53:11;;;;;;;1.20;1.00;;;;;;;18.64;30.50;95218.72;6128778;23;20546;-82
2022/04/12 10:55:41;;;;;;;0.95;0.77;;;;;;;18.76;30.89;95218.13;6128793;23;20174;-82
2022/04/12 10:58:12;;;;;;;2.55;1.20;;;;;;;18.81;31.95;95224.34;6152621;23;20175;-85
2022/04/12 11:00:40;;;;;;;1.88;1.15;;;;;;;18.90;32.01;95224.94;6125690;23;20167;-82
2022/04/12 11:03:06;;;;;;;1.67;0.93;;;;;;;18.76;31.24;95221.53;6130133;23;20179;-82
2022/04/12 11:05:42;;;;;;;2.55;1.20;;;;;;;19.05;31.75;95214.16;6130506;23;20160;-82
2022/04/12 11:08:13;;;;;;;1.40;1.13;;;;;;;19.18;32.03;95217.56;6153360;23;20199;-81
2022/04/12 11:10:39;;;;;;;1.17;1.05;;;;;;;19.22;32.17;95220.59;6152882;23;20213;-81
2022/04/12 11:13:06;;;;;;;1.88;1.13;;;;;;;19.19;31.97;95211.28;6127573;23;20151;-82
2022/04/12 11:15:33;;;;;;;3.80;1.10;;;;;;;19.30;30.22;95209.00;6152939;23;20230;-82
2022/04/12 11:18:16;;;;;;;2.80;1.23;;;;;;;19.25;28.00;95214.88;6128672;23;20171;-81
2022/04/12 11:20:43;;;;;;;2.53;0.93;;;;;;;19.24;27.35;95211.44;6125834;23;20206;-85
2022/04/12 11:23:11;;;;;;;0.80;0.75;;;;;;;19.23;27.44;95215.09;6126995;23;20155;-82
2022/04/12 11:25:50;;;;;;;2.25;1.10;;;;;;;19.36;26.44;95202.91;6127536;23;20183;-81
2022/04/12 11:28:23;;;;;;;2.55;1.00;;;;;;;19.58;26.24;95206.06;6151750;23;20198;-82
2022/04/12 11:30:55;;;;;;;1.20;1.10;;;;;;;19.62;27.39;95213.34;6127488;23;20574;-82
2022/04/12 11:33:25;;;;;;;1.88;1.23;;;;;;;19.66;26.11;95213.72;6127003;23;20493;-82
2022/04/12 11:35:52;;;;;;;1.77;1.08;;;;;;;19.78;25.65;95212.00;6153396;23;20151;-81
2022/04/12 11:38:19;;;;;;;2.38;0.68;;;;;;;19.76;26.72;95198.25;6152534;23;20692;-81